createdAt,value
2023-03-18T00:01:04.103Z,3.97
2023-03-18T00:03:53.528Z,4.15
2023-03-18T00:06:41.694Z,4.50
2023-03-18T00:09:29.878Z,4.20
2023-03-18T00:12:17.976Z,3.88
2023-03-18T00:15:06.496Z,4.47
2023-03-18T00:18:00.437Z,4.47
2023-03-18T00:20:51.888Z,4.47
2023-03-18T00:23:40.224Z,4.60
2023-03-18T00:26:29.282Z,5.93
2023-03-18T00:29:17.089Z,4.15
2023-03-18T00:32:05.113Z,4.43
2023-03-18T00:34:53.174Z,4.32
2023-03-18T00:37:42.578Z,3.70
2023-03-18T00:40:43.236Z,3.78
2023-03-18T00:43:35.903Z,3.92
2023-03-18T00:46:25.752Z,3.90
2023-03-18T00:49:13.971Z,3.70
2023-03-18T00:52:01.868Z,4.10
2023-03-18T00:54:51.300Z,4.00
2023-03-18T00:57:39.421Z,5.00
2023-03-18T01:00:27.583Z,5.05
2023-03-18T01:03:15.722Z,4.22
2023-03-18T01:06:04.564Z,3.55
2023-03-18T01:08:53.817Z,4.18
2023-03-18T01:11:42.906Z,4.70
2023-03-18T01:14:30.864Z,4.82
2023-03-18T01:17:18.845Z,4.00
2023-03-18T01:20:07.908Z,3.80
2023-03-18T01:22:56.926Z,3.80
2023-03-18T01:25:45.741Z,3.80
2023-03-18T01:28:35.082Z,3.78
2023-03-18T01:31:24.275Z,4.47
2023-03-18T01:34:12.140Z,3.83
2023-03-18T01:37:01.570Z,3.47
2023-03-18T01:39:49.444Z,3.75
2023-03-18T01:42:37.785Z,3.72
2023-03-18T01:45:30.151Z,3.47
2023-03-18T01:48:20.098Z,4.07
2023-03-18T01:51:10.366Z,3.63
2023-03-18T01:54:01.553Z,4.00
2023-03-18T01:56:51.690Z,3.78
2023-03-18T01:59:43.154Z,3.67
2023-03-18T02:02:33.952Z,3.90
2023-03-18T02:08:11.856Z,3.40
2023-03-18T02:11:00.328Z,4.05
2023-03-18T02:13:48.702Z,3.65
2023-03-18T02:16:43.536Z,3.65
2023-03-18T02:19:57.970Z,3.92
2023-03-18T02:22:50.628Z,3.50
2023-03-18T02:25:45.569Z,4.05
2023-03-18T02:28:37.932Z,3.60
2023-03-18T02:31:27.337Z,3.40
2023-03-18T02:34:15.708Z,3.53
2023-03-18T02:37:05.575Z,3.40
2023-03-18T02:39:53.362Z,3.25
2023-03-18T02:42:42.086Z,3.95
2023-03-18T02:45:42.002Z,3.60
2023-03-18T02:48:35.704Z,3.72
2023-03-18T02:51:23.661Z,3.47
2023-03-18T02:54:13.771Z,3.58
2023-03-18T02:57:02.935Z,3.92
2023-03-18T02:59:51.179Z,3.90
2023-03-18T03:02:40.725Z,4.00
2023-03-18T03:05:28.766Z,3.67
2023-03-18T03:08:16.848Z,3.97
2023-03-18T03:11:04.931Z,4.35
2023-03-18T03:13:53.496Z,3.30
2023-03-18T03:16:41.136Z,3.33
2023-03-18T03:19:30.977Z,3.80
2023-03-18T03:22:19.757Z,3.72
2023-03-18T03:25:08.920Z,3.72
2023-03-18T03:27:56.971Z,3.65
2023-03-18T03:30:45.456Z,3.60
2023-03-18T03:33:33.371Z,3.35
2023-03-18T03:36:22.760Z,3.80
2023-03-18T03:39:10.751Z,3.50
2023-03-18T03:41:58.709Z,3.70
2023-03-18T03:44:47.405Z,3.60
2023-03-18T03:47:36.114Z,3.83
2023-03-18T03:50:24.676Z,3.97
2023-03-18T03:53:14.542Z,4.10
2023-03-18T03:56:02.663Z,3.83
2023-03-18T03:58:50.734Z,3.42
2023-03-18T04:01:39.198Z,3.60
2023-03-18T04:04:27.842Z,3.90
2023-03-18T04:07:16.031Z,3.63
2023-03-18T04:10:06.688Z,3.72
2023-03-18T04:12:55.405Z,3.58
2023-03-18T04:15:43.800Z,3.10
2023-03-18T04:18:31.819Z,3.40
2023-03-18T04:21:19.644Z,3.60
2023-03-18T04:24:08.491Z,3.95
2023-03-18T04:26:57.595Z,3.67
2023-03-18T04:29:46.561Z,3.97
2023-03-18T04:32:35.065Z,3.80
2023-03-18T04:35:24.241Z,3.95
2023-03-18T04:38:12.345Z,4.05
2023-03-18T04:41:00.598Z,4.03
2023-03-18T04:43:50.664Z,4.15
2023-03-18T04:46:38.603Z,3.22
2023-03-18T04:49:26.900Z,3.47
2023-03-18T04:52:15.141Z,3.50
2023-03-18T04:55:03.400Z,3.50
2023-03-18T04:57:51.652Z,3.10
2023-03-18T05:00:44.043Z,3.25
2023-03-18T05:03:32.295Z,3.10
2023-03-18T05:06:24.719Z,3.20
2023-03-18T05:09:13.277Z,3.42
2023-03-18T05:12:01.076Z,3.65
2023-03-18T05:14:51.442Z,4.38
2023-03-18T05:17:41.320Z,3.30
2023-03-18T05:20:29.605Z,3.47
2023-03-18T05:23:18.029Z,3.90
2023-03-18T05:26:06.682Z,3.22
2023-03-18T05:28:56.438Z,3.25
2023-03-18T05:31:44.581Z,3.35
2023-03-18T05:34:33.954Z,3.65
2023-03-18T05:37:22.323Z,3.63
2023-03-18T05:40:12.018Z,3.30
2023-03-18T05:42:59.736Z,3.33
2023-03-18T05:45:48.559Z,3.15
2023-03-18T05:48:36.878Z,3.88
2023-03-18T05:51:26.506Z,4.55
2023-03-18T05:54:14.341Z,3.70
2023-03-18T05:57:02.512Z,3.50
2023-03-18T05:59:50.612Z,4.47
2023-03-18T06:02:39.303Z,3.00
2023-03-18T06:05:28.673Z,4.45
2023-03-18T06:08:17.888Z,3.60
2023-03-18T06:11:08.156Z,3.40
2023-03-18T06:13:56.709Z,4.15
2023-03-18T06:16:46.411Z,3.58
2023-03-18T06:19:34.285Z,4.22
2023-03-18T06:22:22.459Z,4.03
2023-03-18T06:25:12.335Z,5.00
2023-03-18T06:28:01.696Z,4.53
2023-03-18T06:30:49.661Z,4.38
2023-03-18T06:33:38.252Z,4.63
2023-03-18T06:36:26.663Z,3.92
2023-03-18T06:39:14.317Z,3.78
2023-03-18T06:42:03.671Z,5.05
2023-03-18T06:44:51.872Z,3.92
2023-03-18T06:47:40.935Z,4.07
2023-03-18T06:50:28.755Z,4.22
2023-03-18T06:53:16.378Z,5.13
2023-03-18T06:56:05.985Z,4.72
2023-03-18T06:58:55.488Z,4.40
2023-03-18T07:01:43.637Z,4.47
2023-03-18T07:04:31.673Z,5.50
2023-03-18T07:07:19.452Z,5.80
2023-03-18T07:10:09.335Z,4.70
2023-03-18T07:12:57.875Z,4.97
2023-03-18T07:15:47.204Z,4.75
2023-03-18T07:18:34.868Z,5.13
2023-03-18T07:21:23.619Z,5.65
2023-03-18T07:24:11.377Z,5.50
2023-03-18T07:26:59.679Z,4.90
2023-03-18T07:29:47.453Z,5.50
2023-03-18T07:32:37.466Z,5.18
2023-03-18T07:35:25.239Z,6.30
2023-03-18T07:38:13.935Z,5.85
2023-03-18T07:41:01.984Z,6.15
2023-03-18T07:43:52.576Z,5.97
2023-03-18T07:46:40.622Z,5.90
2023-03-18T07:49:30.114Z,6.10
2023-03-18T07:52:18.009Z,5.43
2023-03-18T07:55:06.716Z,6.32
2023-03-18T07:57:55.040Z,6.20
2023-03-18T08:00:44.272Z,5.97
2023-03-18T08:03:31.988Z,6.25
2023-03-18T08:06:21.336Z,5.45
2023-03-18T08:09:10.674Z,5.90
2023-03-18T08:11:58.626Z,6.45
2023-03-18T08:14:46.673Z,4.88
2023-03-18T08:17:34.867Z,6.07
2023-03-18T08:20:23.110Z,5.78
2023-03-18T08:23:13.103Z,5.10
2023-03-18T08:26:01.055Z,6.72
2023-03-18T08:28:48.731Z,6.28
2023-03-18T08:31:36.769Z,6.10
2023-03-18T08:34:24.905Z,6.70
2023-03-18T08:37:12.973Z,6.32
2023-03-18T08:40:02.391Z,6.95
2023-03-18T08:42:50.492Z,7.22
2023-03-18T08:45:39.087Z,8.32
2023-03-18T08:48:27.211Z,7.28
2023-03-18T08:51:14.930Z,9.95
2023-03-18T08:54:02.796Z,7.43
2023-03-18T08:56:53.148Z,7.13
2023-03-18T08:59:41.388Z,6.10
2023-03-18T09:02:29.292Z,6.93
2023-03-18T09:05:17.810Z,7.10
2023-03-18T09:08:06.556Z,7.25
2023-03-18T09:10:55.229Z,6.07
2023-03-18T09:13:44.422Z,6.97
2023-03-18T09:16:32.265Z,7.63
2023-03-18T09:19:20.124Z,6.43
2023-03-18T09:22:08.866Z,6.57
2023-03-18T09:24:56.850Z,7.72
2023-03-18T09:27:45.787Z,11.18
2023-03-18T09:30:35.382Z,7.13
2023-03-18T09:33:24.964Z,7.03
2023-03-18T09:36:13.895Z,8.35
2023-03-18T09:39:02.679Z,7.95
2023-03-18T09:42:08.190Z,7.88
2023-03-18T09:44:59.250Z,7.43
2023-03-18T09:48:02.218Z,7.28
2023-03-18T09:51:02.953Z,8.40
2023-03-18T09:53:55.615Z,5.88
2023-03-18T09:59:39.451Z,6.93
2023-03-18T10:02:35.183Z,8.25
2023-03-18T10:05:31.438Z,8.18
2023-03-18T10:08:25.835Z,6.13
2023-03-18T10:11:22.992Z,6.53
2023-03-18T10:14:30.735Z,6.05
2023-03-18T10:17:22.848Z,5.82
2023-03-18T10:20:19.192Z,5.90
2023-03-18T10:23:19.098Z,5.15
2023-03-18T10:26:14.351Z,7.90
2023-03-18T10:29:30.405Z,6.18
2023-03-18T10:32:42.869Z,5.63
2023-03-18T10:35:39.865Z,6.10
2023-03-18T10:38:36.254Z,4.03
2023-03-18T10:41:30.845Z,4.50
2023-03-18T10:44:23.616Z,4.00
2023-03-18T10:47:16.435Z,3.83
2023-03-18T10:50:14.629Z,3.50
2023-03-18T10:53:11.978Z,5.00
2023-03-18T10:56:07.737Z,4.82
2023-03-18T10:58:57.491Z,6.50
2023-03-18T11:01:49.895Z,3.97
2023-03-18T11:04:44.442Z,2.92
2023-03-18T11:07:33.213Z,3.10
2023-03-18T11:10:27.736Z,2.40
2023-03-18T11:13:19.099Z,2.20
2023-03-18T11:16:07.597Z,3.28
2023-03-18T11:18:55.312Z,3.28
2023-03-18T11:21:43.242Z,2.33
2023-03-18T11:24:42.304Z,3.08
2023-03-18T11:27:37.339Z,3.03
2023-03-18T11:30:34.305Z,2.78
2023-03-18T11:33:27.035Z,2.80
2023-03-18T11:36:19.431Z,3.58
2023-03-18T11:39:08.729Z,4.10
2023-03-18T11:41:56.536Z,2.38
2023-03-18T11:44:44.498Z,3.70
2023-03-18T11:47:36.468Z,2.90
2023-03-18T11:50:27.375Z,3.65
2023-03-18T11:53:22.666Z,2.90
2023-03-18T11:56:20.127Z,3.30
2023-03-18T11:59:28.875Z,5.22
2023-03-18T12:02:32.243Z,3.65
2023-03-18T12:05:44.791Z,3.00
2023-03-18T12:08:47.995Z,4.78
2023-03-18T12:11:59.050Z,4.15
2023-03-18T12:14:56.717Z,2.10
2023-03-18T12:17:54.720Z,4.43
2023-03-18T12:20:53.327Z,2.53
2023-03-18T12:23:57.980Z,2.17
2023-03-18T12:26:59.688Z,2.20
2023-03-18T12:30:06.621Z,2.20
2023-03-18T12:33:04.148Z,1.90
2023-03-18T12:36:07.364Z,3.03
2023-03-18T12:39:40.176Z,5.05
2023-03-18T12:42:43.514Z,3.90
2023-03-18T12:45:39.496Z,2.88
2023-03-18T12:48:43.239Z,3.05
2023-03-18T12:51:43.608Z,4.22
2023-03-18T12:54:34.945Z,2.97
2023-03-18T12:57:30.320Z,4.50
2023-03-18T13:00:28.372Z,3.72
2023-03-18T13:03:28.430Z,6.30
2023-03-18T13:06:22.212Z,3.63
2023-03-18T13:09:22.953Z,3.55
2023-03-18T13:12:14.511Z,2.30
2023-03-18T13:15:08.277Z,3.17
2023-03-18T13:18:01.579Z,3.30
2023-03-18T13:20:53.618Z,3.25
2023-03-18T13:24:27.188Z,2.53
2023-03-18T13:27:52.476Z,4.18
2023-03-18T13:30:53.947Z,3.20
2023-03-18T13:34:03.973Z,3.10
2023-03-18T13:37:15.490Z,2.20
2023-03-18T13:40:27.426Z,2.47
2023-03-18T13:43:19.336Z,3.72
2023-03-18T13:46:18.948Z,2.03
2023-03-18T13:49:14.452Z,5.38
2023-03-18T13:52:04.521Z,2.30
2023-03-18T13:54:52.577Z,4.10
2023-03-18T13:57:58.185Z,3.00
2023-03-18T14:00:47.535Z,2.53
2023-03-18T14:03:55.457Z,2.45
2023-03-18T14:06:56.413Z,2.33
2023-03-18T14:09:54.822Z,3.10
2023-03-18T14:12:47.326Z,2.95
2023-03-18T14:15:47.503Z,3.15
2023-03-18T14:18:39.882Z,2.95
2023-03-18T14:21:30.131Z,3.03
2023-03-18T14:24:27.257Z,3.20
2023-03-18T14:27:20.383Z,4.20
2023-03-18T14:30:43.782Z,5.20
2023-03-18T14:33:48.641Z,2.47
2023-03-18T14:37:19.873Z,7.97
2023-03-18T14:40:15.874Z,7.53
2023-03-18T14:43:09.253Z,3.55
2023-03-18T14:46:02.105Z,3.50
2023-03-18T14:48:53.831Z,2.00
2023-03-18T14:51:42.401Z,2.15
2023-03-18T14:54:36.947Z,2.28
2023-03-18T14:57:27.838Z,2.45
2023-03-18T15:00:18.053Z,2.17
2023-03-18T15:03:18.882Z,2.70
2023-03-18T15:06:08.902Z,1.90
2023-03-18T15:09:02.274Z,2.10
2023-03-18T15:11:49.880Z,1.90
2023-03-18T15:14:38.307Z,2.20
2023-03-18T15:17:28.282Z,3.47
2023-03-18T15:20:18.645Z,2.92
2023-03-18T15:23:12.467Z,2.65
2023-03-18T15:26:02.738Z,2.63
2023-03-18T15:28:54.448Z,2.90
2023-03-18T15:31:45.705Z,3.58
2023-03-18T15:34:35.201Z,2.45
2023-03-18T15:37:40.360Z,3.45
2023-03-18T15:40:32.169Z,3.10
2023-03-18T15:43:30.360Z,2.70
2023-03-18T15:46:23.846Z,3.30
2023-03-18T15:49:12.556Z,2.55
2023-03-18T15:52:03.204Z,3.10
2023-03-18T15:54:53.428Z,2.65
2023-03-18T15:57:44.298Z,2.80
2023-03-18T16:00:34.645Z,2.70
2023-03-18T16:03:24.638Z,2.85
2023-03-18T16:06:12.999Z,2.47
2023-03-18T16:09:01.403Z,2.55
2023-03-18T16:11:53.530Z,2.20
2023-03-18T16:14:44.215Z,2.72
2023-03-18T16:17:34.817Z,2.70
2023-03-18T16:20:25.613Z,2.40
2023-03-18T16:23:15.304Z,4.28
2023-03-18T16:26:03.387Z,3.63
2023-03-18T16:28:52.999Z,4.32
2023-03-18T16:31:40.779Z,3.78
2023-03-18T16:34:28.835Z,2.78
2023-03-18T16:37:22.616Z,1.92
2023-03-18T16:40:17.303Z,2.65
2023-03-18T16:43:04.955Z,3.30
2023-03-18T16:45:55.239Z,3.00
2023-03-18T16:48:43.392Z,3.53
2023-03-18T16:51:32.073Z,3.35
2023-03-18T16:54:22.337Z,2.58
2023-03-18T16:57:17.333Z,4.07
2023-03-18T17:00:11.159Z,5.03
2023-03-18T17:03:01.196Z,3.15
2023-03-18T17:05:52.070Z,2.70
2023-03-18T17:08:40.169Z,3.58
2023-03-18T17:11:28.622Z,4.35
2023-03-18T17:14:33.847Z,7.03
2023-03-18T17:17:28.403Z,4.50
2023-03-18T17:20:21.022Z,5.60
2023-03-18T17:23:12.810Z,11.05
2023-03-18T17:26:06.155Z,15.48
2023-03-18T17:28:54.757Z,9.40
2023-03-18T17:31:43.025Z,8.20
2023-03-18T17:34:31.863Z,7.57
2023-03-18T17:37:21.738Z,6.28
2023-03-18T17:40:11.045Z,5.50
2023-03-18T17:42:58.704Z,5.60
2023-03-18T17:45:46.992Z,6.15
2023-03-18T17:48:36.586Z,6.63
2023-03-18T17:51:26.768Z,10.05
2023-03-18T17:54:17.785Z,9.13
2023-03-18T17:57:05.818Z,7.70
2023-03-18T17:59:54.629Z,9.00
2023-03-18T18:02:42.810Z,9.77
2023-03-18T18:05:30.816Z,9.32
2023-03-18T18:08:20.129Z,9.63
2023-03-18T18:11:20.061Z,8.50
2023-03-18T18:14:18.045Z,9.18
2023-03-18T18:17:15.037Z,9.45
2023-03-18T18:20:03.296Z,8.25
2023-03-18T18:22:54.938Z,7.25
2023-03-18T18:25:42.635Z,6.38
2023-03-18T18:28:35.670Z,6.43
2023-03-18T18:34:12.193Z,5.15
2023-03-18T18:37:00.361Z,4.82
2023-03-18T18:39:48.773Z,4.53
2023-03-18T18:42:36.503Z,5.40
2023-03-18T18:45:26.079Z,5.00
2023-03-18T18:48:15.710Z,5.30
2023-03-18T18:51:05.137Z,4.70
2023-03-18T18:53:54.949Z,5.05
2023-03-18T18:56:43.738Z,5.40
2023-03-18T18:59:33.548Z,5.32
2023-03-18T19:02:31.240Z,5.78
2023-03-18T19:05:19.190Z,6.05
2023-03-18T19:08:07.320Z,5.30
2023-03-18T19:10:56.677Z,3.95
2023-03-18T19:13:44.901Z,4.00
2023-03-18T19:16:34.837Z,4.07
2023-03-18T19:19:28.781Z,3.65
2023-03-18T19:22:18.384Z,3.90
2023-03-18T19:25:06.618Z,3.83
2023-03-18T19:27:58.081Z,3.83
2023-03-18T19:30:46.081Z,3.90
2023-03-18T19:33:34.385Z,3.85
2023-03-18T19:36:27.614Z,4.30
2023-03-18T19:42:04.673Z,3.15
2023-03-18T19:44:52.596Z,5.63
2023-03-18T19:47:41.922Z,7.72
2023-03-18T19:50:30.125Z,13.10
2023-03-18T19:53:20.527Z,15.68
2023-03-18T19:56:23.854Z,19.63
2023-03-18T19:59:20.908Z,20.40
2023-03-18T20:02:21.040Z,21.02
2023-03-18T20:05:18.962Z,16.08
2023-03-18T20:08:07.396Z,11.95
2023-03-18T20:10:56.905Z,7.18
2023-03-18T20:13:45.950Z,5.68
2023-03-18T20:16:33.843Z,4.28
2023-03-18T20:19:22.218Z,4.80
2023-03-18T20:22:13.240Z,4.93
2023-03-18T20:25:02.360Z,5.05
2023-03-18T20:27:53.625Z,5.25
2023-03-18T20:30:41.811Z,5.47
2023-03-18T20:33:32.373Z,5.03
2023-03-18T20:36:21.654Z,5.55
2023-03-18T20:39:18.046Z,5.60
2023-03-18T20:42:06.597Z,5.28
2023-03-18T20:44:56.022Z,4.30
2023-03-18T20:47:44.048Z,4.32
2023-03-18T20:50:31.730Z,4.00
2023-03-18T20:53:21.957Z,3.85
2023-03-18T20:56:10.215Z,4.20
2023-03-18T20:58:58.666Z,4.15
2023-03-18T21:01:47.870Z,4.28
2023-03-18T21:04:37.063Z,3.83
2023-03-18T21:07:25.158Z,3.55
2023-03-18T21:10:17.694Z,3.88
2023-03-18T21:13:26.636Z,3.53
2023-03-18T21:16:16.773Z,3.45
2023-03-18T21:19:06.184Z,3.40
2023-03-18T21:21:54.287Z,3.20
2023-03-18T21:24:42.518Z,3.92
2023-03-18T21:27:31.005Z,4.18
2023-03-18T21:30:21.915Z,3.97
2023-03-18T21:33:21.002Z,4.38
2023-03-18T21:36:12.377Z,4.38
2023-03-18T21:39:00.292Z,4.53
2023-03-18T21:41:48.567Z,4.30
2023-03-18T21:44:36.780Z,3.95
2023-03-18T21:47:26.295Z,4.45
2023-03-18T21:50:21.426Z,3.70
2023-03-18T21:53:13.858Z,3.78
2023-03-18T21:56:01.718Z,4.03
2023-03-18T21:58:49.823Z,4.63
2023-03-18T22:01:37.649Z,4.28
2023-03-18T22:04:25.860Z,4.45
2023-03-18T22:07:15.278Z,5.05
2023-03-18T22:10:06.908Z,5.05
2023-03-18T22:12:54.933Z,6.47
2023-03-18T22:15:43.074Z,6.63
2023-03-18T22:18:31.131Z,7.20
2023-03-18T22:21:22.553Z,6.93
2023-03-18T22:24:14.809Z,7.43
2023-03-18T22:27:03.954Z,8.30
2023-03-18T22:29:53.766Z,8.15
2023-03-18T22:32:44.313Z,8.00
2023-03-18T22:35:35.327Z,7.68
2023-03-18T22:38:25.249Z,7.55
2023-03-18T22:41:20.128Z,8.43
2023-03-18T22:44:16.728Z,7.47
2023-03-18T22:47:04.736Z,6.72
2023-03-18T22:49:53.653Z,7.15
2023-03-18T22:52:41.874Z,6.90
2023-03-18T22:55:34.445Z,6.82
2023-03-18T22:58:25.502Z,7.00
2023-03-18T23:01:17.099Z,6.85
2023-03-18T23:04:05.257Z,5.72
2023-03-18T23:06:53.432Z,6.07
2023-03-18T23:09:54.259Z,5.95
2023-03-18T23:12:43.818Z,5.85
2023-03-18T23:15:31.957Z,5.53
2023-03-18T23:18:23.622Z,5.70
2023-03-18T23:21:15.375Z,5.78
2023-03-18T23:24:02.977Z,5.13
2023-03-18T23:26:51.011Z,5.28
2023-03-18T23:29:38.899Z,5.45
2023-03-18T23:32:27.011Z,5.50
2023-03-18T23:35:16.721Z,5.43
2023-03-18T23:38:04.834Z,5.72
2023-03-18T23:40:52.562Z,5.22
2023-03-18T23:43:40.473Z,5.43
2023-03-18T23:46:28.379Z,5.68
2023-03-18T23:49:16.598Z,6.05
2023-03-18T23:52:07.566Z,5.50
2023-03-18T23:54:55.474Z,6.57
2023-03-18T23:57:43.578Z,6.20
